createdAt,value
2022-08-04T00:03:39.823Z,14.22
2022-08-04T00:24:13.308Z,14.08
2022-08-04T00:41:04.799Z,14.07
2022-08-04T00:44:30.495Z,14.05
2022-08-04T00:47:59.786Z,14.33
2022-08-04T00:52:58.289Z,14.35
2022-08-04T00:56:27.808Z,14.05
2022-08-04T01:00:38.686Z,13.91
2022-08-04T01:04:34.964Z,13.64
2022-08-04T01:14:55.063Z,13.55
2022-08-04T01:18:03.480Z,13.40
2022-08-04T01:21:12.348Z,13.49
2022-08-04T01:25:08.239Z,13.50
2022-08-04T01:28:17.689Z,13.46
2022-08-04T01:30:58.470Z,13.62
2022-08-04T01:34:03.192Z,13.56
2022-08-04T01:37:35.151Z,13.57
2022-08-04T01:40:51.259Z,12.66
2022-08-04T01:46:27.432Z,12.75
2022-08-04T01:48:59.316Z,12.67
2022-08-04T01:51:28.393Z,12.77
2022-08-04T01:53:56.371Z,12.77
2022-08-04T01:56:28.273Z,12.77
2022-08-04T01:59:02.965Z,12.65
2022-08-04T02:01:36.049Z,12.59
2022-08-04T02:04:18.259Z,12.62
2022-08-04T02:07:36.201Z,12.41
2022-08-04T02:10:15.251Z,11.74
2022-08-04T02:17:48.154Z,12.05
2022-08-04T02:20:32.657Z,12.28
2022-08-04T02:23:21.878Z,12.53
2022-08-04T02:26:03.776Z,12.15
2022-08-04T02:29:54.692Z,11.90
2022-08-04T02:32:43.318Z,11.75
2022-08-04T02:35:31.259Z,11.37
2022-08-04T02:39:04.826Z,11.40
2022-08-04T02:45:31.023Z,11.73
2022-08-04T02:52:08.338Z,12.31
2022-08-04T02:54:47.475Z,12.24
2022-08-04T02:57:58.457Z,12.17
2022-08-04T03:01:05.145Z,12.27
2022-08-04T03:04:11.240Z,12.16
2022-08-04T03:07:26.052Z,12.17
2022-08-04T03:10:50.781Z,11.84
2022-08-04T03:14:46.332Z,11.47
2022-08-04T03:18:48.046Z,10.84
2022-08-04T03:22:15.094Z,10.95
2022-08-04T03:26:10.398Z,11.14
2022-08-04T03:29:47.161Z,10.93
2022-08-04T03:33:21.078Z,10.88
2022-08-04T03:36:12.267Z,10.61
2022-08-04T03:39:33.727Z,10.45
2022-08-04T03:43:10.403Z,10.47
2022-08-04T03:46:41.585Z,10.43
2022-08-04T03:50:38.272Z,10.26
2022-08-04T03:53:43.271Z,10.75
2022-08-04T03:57:18.016Z,11.13
2022-08-04T04:04:42.527Z,11.13
2022-08-04T04:08:36.442Z,11.33
2022-08-04T04:12:12.310Z,11.43
2022-08-04T04:24:39.640Z,11.65
2022-08-04T04:28:44.661Z,11.92
2022-08-04T04:32:39.753Z,11.99
2022-08-04T04:35:34.548Z,12.38
2022-08-04T04:48:11.852Z,12.89
2022-08-04T04:51:44.927Z,13.08
2022-08-04T04:55:20.803Z,13.25
2022-08-04T05:02:15.256Z,14.50
2022-08-04T05:14:35.736Z,15.11
2022-08-04T05:17:30.844Z,15.43
2022-08-04T05:21:09.406Z,15.89
2022-08-04T05:24:18.021Z,15.49
2022-08-04T05:27:55.404Z,16.09
2022-08-04T05:37:34.235Z,16.26
2022-08-04T05:43:30.992Z,17.22
2022-08-04T05:46:26.540Z,17.29
2022-08-04T05:49:11.408Z,16.86
2022-08-04T05:51:51.251Z,16.79
2022-08-04T05:55:08.467Z,16.92
2022-08-04T06:01:25.239Z,17.73
2022-08-04T06:03:57.038Z,17.56
2022-08-04T06:14:05.333Z,17.72
2022-08-04T06:18:34.031Z,17.22
2022-08-04T06:29:27.132Z,18.65
2022-08-04T06:33:04.203Z,18.58
2022-08-04T06:35:38.330Z,18.00
2022-08-04T06:38:08.636Z,17.97
2022-08-04T06:41:14.875Z,18.71
2022-08-04T06:43:43.870Z,18.30
2022-08-04T06:46:17.916Z,18.37
2022-08-04T06:49:00.475Z,18.74
2022-08-04T06:51:40.984Z,18.78
2022-08-04T06:54:23.628Z,18.83
2022-08-04T06:57:23.057Z,19.01
2022-08-04T07:03:37.541Z,18.94
2022-08-04T07:06:14.053Z,18.80
2022-08-04T07:09:13.696Z,19.16
2022-08-04T07:11:44.681Z,19.56
2022-08-04T07:14:15.338Z,19.67
2022-08-04T07:16:50.246Z,19.34
2022-08-04T07:19:19.196Z,19.27
2022-08-04T07:22:16.247Z,18.77
2022-08-04T07:24:41.764Z,19.49
2022-08-04T07:27:09.881Z,19.61
2022-08-04T07:29:38.694Z,19.72
2022-08-04T07:32:08.230Z,19.73
2022-08-04T07:34:42.400Z,19.86
2022-08-04T07:37:10.082Z,19.72
2022-08-04T07:39:50.714Z,20.16
2022-08-04T07:42:24.670Z,20.11
2022-08-04T07:44:51.865Z,20.14
2022-08-04T07:47:23.529Z,20.15
2022-08-04T07:49:58.036Z,20.01
2022-08-04T07:52:31.206Z,20.37
2022-08-04T07:54:58.890Z,20.22
2022-08-04T07:57:41.174Z,20.41
2022-08-04T08:00:14.746Z,20.60
2022-08-04T08:02:50.628Z,20.37
2022-08-04T08:05:25.459Z,20.59
2022-08-04T08:08:00.386Z,20.90
2022-08-04T08:10:27.410Z,20.73
2022-08-04T08:12:58.351Z,21.18
2022-08-04T08:15:29.584Z,21.37
2022-08-04T08:17:59.812Z,21.63
2022-08-04T08:20:32.382Z,21.46
2022-08-04T08:23:02.885Z,21.44
2022-08-04T08:25:35.701Z,21.86
2022-08-04T08:28:08.308Z,22.09
2022-08-04T08:30:35.796Z,22.31
2022-08-04T08:33:09.739Z,22.38
2022-08-04T08:36:09.994Z,21.98
2022-08-04T08:39:53.907Z,22.04
2022-08-04T08:42:59.330Z,22.59
2022-08-04T08:47:00.410Z,23.19
2022-08-04T08:50:04.479Z,22.95
2022-08-04T08:53:30.487Z,23.12
2022-08-04T08:56:18.972Z,22.91
2022-08-04T08:59:28.556Z,23.29
2022-08-04T09:03:06.163Z,23.69
2022-08-04T09:06:28.469Z,23.85
2022-08-04T09:09:44.407Z,23.39
2022-08-04T09:12:42.318Z,23.74
2022-08-04T09:15:24.235Z,24.10
2022-08-04T09:18:40.730Z,24.64
2022-08-04T09:21:33.901Z,24.61
2022-08-04T09:24:37.140Z,25.04
2022-08-04T09:27:31.401Z,25.12
2022-08-04T09:30:35.370Z,25.54
2022-08-04T09:33:45.836Z,25.42
2022-08-04T09:36:51.699Z,25.90
2022-08-04T09:39:39.570Z,26.32
2022-08-04T09:42:34.824Z,25.38
2022-08-04T09:45:43.283Z,25.58
2022-08-04T09:49:04.224Z,25.43
2022-08-04T09:52:36.419Z,26.28
2022-08-04T09:55:53.566Z,26.82
2022-08-04T09:59:34.853Z,27.19
2022-08-04T10:02:09.531Z,26.77
2022-08-04T10:04:39.574Z,27.20
2022-08-04T10:08:15.256Z,27.59
2022-08-04T10:11:11.538Z,27.46
2022-08-04T10:14:05.354Z,27.93
2022-08-04T10:17:07.647Z,26.49
2022-08-04T10:19:40.519Z,27.20
2022-08-04T10:23:10.750Z,27.20
2022-08-04T10:26:20.161Z,27.84
2022-08-04T10:29:41.356Z,27.99
2022-08-04T10:32:43.142Z,28.06
2022-08-04T10:35:37.941Z,27.75
2022-08-04T10:38:40.612Z,28.65
2022-08-04T10:41:56.382Z,27.31
2022-08-04T10:44:48.232Z,28.22
2022-08-04T10:47:24.809Z,28.19
2022-08-04T10:50:00.283Z,28.54
2022-08-04T10:52:39.504Z,28.18
2022-08-04T10:55:18.957Z,28.74
2022-08-04T10:58:02.962Z,28.48
2022-08-04T11:00:35.789Z,29.33
2022-08-04T11:03:31.263Z,28.57
2022-08-04T11:05:59.647Z,29.03
2022-08-04T11:08:54.773Z,29.48
2022-08-04T11:12:00.684Z,29.92
2022-08-04T11:14:41.841Z,30.24
2022-08-04T11:17:45.053Z,29.67
2022-08-04T11:20:50.490Z,29.57
2022-08-04T11:23:23.905Z,29.61
2022-08-04T11:26:36.753Z,28.89
2022-08-04T11:29:22.384Z,30.17
2022-08-04T11:31:52.579Z,30.17
2022-08-04T11:34:27.699Z,30.07
2022-08-04T11:37:22.134Z,30.38
2022-08-04T11:40:04.186Z,29.75
2022-08-04T11:42:49.984Z,30.33
2022-08-04T11:45:34.118Z,29.38
2022-08-04T11:48:22.867Z,29.03
2022-08-04T11:50:55.227Z,29.58
2022-08-04T11:53:36.505Z,30.00
2022-08-04T11:56:32.354Z,30.44
2022-08-04T11:59:04.277Z,29.35
2022-08-04T12:02:02.191Z,29.49
2022-08-04T12:04:57.340Z,30.56
2022-08-04T12:07:55.089Z,30.01
2022-08-04T12:11:13.518Z,31.09
2022-08-04T12:14:13.238Z,30.01
2022-08-04T12:17:03.702Z,30.84
2022-08-04T12:20:03.705Z,30.38
2022-08-04T12:22:41.969Z,30.67
2022-08-04T12:25:44.860Z,30.48
2022-08-04T12:29:13.308Z,31.60
2022-08-04T12:32:11.771Z,29.91
2022-08-04T12:35:09.302Z,31.07
2022-08-04T12:38:04.504Z,31.06
2022-08-04T12:40:56.987Z,32.49
2022-08-04T12:43:39.630Z,31.49
2022-08-04T12:46:13.074Z,31.01
2022-08-04T12:48:47.276Z,31.40
2022-08-04T12:51:30.972Z,31.10
2022-08-04T12:54:03.476Z,30.46
2022-08-04T12:56:32.526Z,31.01
2022-08-04T12:59:12.476Z,31.78
2022-08-04T13:02:09.235Z,31.76
2022-08-04T13:04:38.242Z,30.59
2022-08-04T13:07:22.561Z,31.25
2022-08-04T13:09:51.666Z,30.78
2022-08-04T13:12:32.291Z,30.61
2022-08-04T13:15:18.609Z,30.92
2022-08-04T13:18:14.868Z,31.77
2022-08-04T13:20:44.754Z,31.34
2022-08-04T13:23:21.522Z,31.94
2022-08-04T13:26:42.491Z,32.35
2022-08-04T13:28:48.162Z,31.61
2022-08-04T13:31:21.871Z,32.41
2022-08-04T13:34:02.299Z,30.95
2022-08-04T13:36:32.386Z,31.65
2022-08-04T13:39:08.733Z,31.37
2022-08-04T13:41:43.163Z,31.16
2022-08-04T13:44:18.474Z,31.29
2022-08-04T13:46:55.261Z,33.04
2022-08-04T13:49:38.117Z,31.27
2022-08-04T13:52:10.480Z,31.68
2022-08-04T13:54:44.773Z,31.67
2022-08-04T13:57:27.852Z,30.91
2022-08-04T14:00:08.729Z,31.01
2022-08-04T14:02:52.539Z,31.71
2022-08-04T14:05:30.381Z,30.90
2022-08-04T14:08:26.668Z,31.92
2022-08-04T14:10:57.826Z,32.17
2022-08-04T14:13:41.405Z,32.54
2022-08-04T14:16:22.051Z,32.19
2022-08-04T14:19:01.757Z,31.55
2022-08-04T14:21:35.477Z,31.19
2022-08-04T14:24:02.508Z,32.98
2022-08-04T14:26:34.696Z,32.65
2022-08-04T14:29:26.621Z,33.02
2022-08-04T14:32:12.747Z,33.69
2022-08-04T14:34:45.460Z,33.28
2022-08-04T14:37:20.534Z,32.67
2022-08-04T14:40:07.570Z,33.12
2022-08-04T14:42:55.556Z,32.91
2022-08-04T14:45:55.526Z,33.20
2022-08-04T14:48:23.177Z,32.33
2022-08-04T14:50:51.164Z,33.08
2022-08-04T14:53:29.389Z,32.40
2022-08-04T14:56:00.075Z,32.31
2022-08-04T14:58:39.040Z,33.44
2022-08-04T15:01:12.241Z,33.65
2022-08-04T15:03:50.182Z,33.82
2022-08-04T15:06:27.087Z,33.86
2022-08-04T15:08:59.269Z,34.08
2022-08-04T15:11:28.388Z,34.08
2022-08-04T15:13:57.963Z,33.74
2022-08-04T15:16:29.376Z,32.65
2022-08-04T15:18:57.607Z,32.39
2022-08-04T15:21:29.730Z,32.74
2022-08-04T15:23:58.829Z,32.97
2022-08-04T15:26:41.384Z,33.18
2022-08-04T15:30:00.416Z,34.04
2022-08-04T15:32:33.060Z,33.89
2022-08-04T15:35:39.076Z,32.45
2022-08-04T15:38:31.043Z,31.69
2022-08-04T15:41:20.081Z,33.36
2022-08-04T15:44:12.957Z,34.07
2022-08-04T15:46:51.333Z,34.29
2022-08-04T15:49:25.851Z,33.71
2022-08-04T15:52:11.951Z,34.05
2022-08-04T15:54:42.415Z,32.61
2022-08-04T15:58:05.329Z,33.86
2022-08-04T16:00:50.264Z,33.08
2022-08-04T16:03:58.106Z,33.63
2022-08-04T16:06:22.503Z,32.73
2022-08-04T16:08:57.998Z,31.39
2022-08-04T16:11:31.144Z,32.17
2022-08-04T16:13:59.009Z,32.91
2022-08-04T16:16:38.500Z,32.73
2022-08-04T16:19:41.438Z,32.20
2022-08-04T16:22:31.017Z,32.00
2022-08-04T16:24:58.208Z,31.54
2022-08-04T16:27:45.419Z,30.69
2022-08-04T16:30:15.916Z,30.76
2022-08-04T16:32:48.631Z,31.21
2022-08-04T16:35:26.249Z,31.03
2022-08-04T16:38:15.442Z,31.49
2022-08-04T16:40:46.756Z,30.67
2022-08-04T16:43:17.642Z,31.00
2022-08-04T16:45:55.695Z,30.81
2022-08-04T16:48:31.558Z,31.15
2022-08-04T16:51:12.954Z,30.85
2022-08-04T16:53:53.172Z,30.90
2022-08-04T16:56:35.378Z,30.99
2022-08-04T16:59:11.988Z,31.03
2022-08-04T17:01:51.966Z,30.80
2022-08-04T17:04:30.468Z,30.71
2022-08-04T17:07:06.115Z,30.55
2022-08-04T17:09:33.499Z,30.23
2022-08-04T17:12:02.110Z,29.98
2022-08-04T17:14:31.387Z,29.61
2022-08-04T17:17:02.426Z,29.35
2022-08-04T17:19:29.506Z,28.61
2022-08-04T17:22:10.339Z,28.80
2022-08-04T17:24:40.677Z,28.69
2022-08-04T17:28:19.217Z,28.44
2022-08-04T17:29:55.679Z,27.87
2022-08-04T17:32:24.023Z,28.13
2022-08-04T17:34:59.179Z,27.87
2022-08-04T17:37:38.910Z,27.52
2022-08-04T17:40:22.758Z,27.50
2022-08-04T17:44:04.634Z,27.56
2022-08-04T17:46:43.215Z,27.38
2022-08-04T17:49:16.802Z,27.37
2022-08-04T17:52:04.647Z,27.04
2022-08-04T17:54:40.395Z,27.13
2022-08-04T17:57:15.209Z,26.53
2022-08-04T18:03:02.788Z,26.54
2022-08-04T18:05:50.268Z,26.27
2022-08-04T18:08:38.345Z,26.47
2022-08-04T18:11:05.537Z,26.19
2022-08-04T18:13:42.818Z,25.96
2022-08-04T18:16:21.852Z,25.69
2022-08-04T18:19:15.288Z,24.93
2022-08-04T18:21:45.724Z,24.79
2022-08-04T18:24:34.448Z,24.53
2022-08-04T18:27:06.602Z,24.06
2022-08-04T18:29:39.343Z,23.99
2022-08-04T18:32:09.322Z,24.02
2022-08-04T18:34:40.717Z,23.76
2022-08-04T18:38:05.488Z,23.42
2022-08-04T18:40:26.578Z,23.22
2022-08-04T18:43:00.104Z,23.05
2022-08-04T18:45:34.506Z,23.06
2022-08-04T18:48:14.629Z,22.78
2022-08-04T18:51:09.072Z,22.92
2022-08-04T18:53:35.413Z,22.84
2022-08-04T18:56:19.941Z,22.82
2022-08-04T18:58:53.616Z,22.54
2022-08-04T19:01:21.549Z,22.23
2022-08-04T19:03:58.051Z,21.94
2022-08-04T19:06:25.984Z,21.56
2022-08-04T19:08:54.477Z,21.50
2022-08-04T19:11:38.280Z,21.47
2022-08-04T19:14:13.736Z,21.45
2022-08-04T19:16:41.340Z,21.46
2022-08-04T19:19:13.790Z,21.30
2022-08-04T19:21:59.386Z,21.07
2022-08-04T19:24:34.441Z,20.67
2022-08-04T19:27:07.368Z,20.61
2022-08-04T19:29:41.051Z,20.45
2022-08-04T19:32:14.593Z,20.23
2022-08-04T19:34:47.872Z,20.22
2022-08-04T19:37:57.097Z,20.20
2022-08-04T19:40:09.942Z,20.09
2022-08-04T19:42:37.985Z,20.01
2022-08-04T19:45:06.783Z,19.27
2022-08-04T19:48:12.017Z,19.41
2022-08-04T19:50:23.857Z,19.65
2022-08-04T19:52:52.669Z,19.53
2022-08-04T19:55:37.776Z,19.50
2022-08-04T19:58:12.296Z,19.40
2022-08-04T20:00:50.860Z,19.36
2022-08-04T20:03:20.257Z,19.34
2022-08-04T20:05:53.234Z,19.31
2022-08-04T20:08:31.666Z,19.19
2022-08-04T20:10:59.980Z,19.05
2022-08-04T20:13:37.152Z,18.82
2022-08-04T20:16:28.341Z,18.77
2022-08-04T20:19:00.746Z,18.00
2022-08-04T20:21:55.641Z,18.31
2022-08-04T20:24:40.482Z,18.53
2022-08-04T20:27:22.061Z,18.58
2022-08-04T20:29:55.528Z,17.52
2022-08-04T20:32:26.718Z,17.97
2022-08-04T20:34:57.002Z,18.19
2022-08-04T20:40:14.617Z,18.45
2022-08-04T20:42:45.018Z,18.46
2022-08-04T20:45:16.297Z,18.49
2022-08-04T20:47:45.982Z,18.39
2022-08-04T20:50:29.783Z,18.52
2022-08-04T20:52:58.688Z,18.38
2022-08-04T20:55:29.776Z,18.43
2022-08-04T20:58:02.511Z,18.50
2022-08-04T21:00:31.363Z,18.52
2022-08-04T21:03:01.689Z,18.43
2022-08-04T21:05:29.277Z,18.23
2022-08-04T21:07:59.169Z,18.45
2022-08-04T21:10:27.221Z,18.26
2022-08-04T21:12:54.729Z,18.40
2022-08-04T21:15:25.573Z,18.85
2022-08-04T21:17:56.597Z,18.86
2022-08-04T21:20:27.963Z,18.66
2022-08-04T21:22:55.766Z,18.40
2022-08-04T21:25:27.056Z,18.78
2022-08-04T21:27:54.005Z,18.82
2022-08-04T21:30:23.892Z,18.99
2022-08-04T21:32:52.104Z,19.21
2022-08-04T21:35:19.524Z,19.13
2022-08-04T21:37:58.165Z,19.22
2022-08-04T21:40:36.849Z,18.96
2022-08-04T21:43:07.615Z,19.42
2022-08-04T21:45:36.460Z,19.68
2022-08-04T21:48:05.405Z,19.29
2022-08-04T21:50:32.362Z,19.40
2022-08-04T21:52:59.299Z,19.24
2022-08-04T21:56:05.111Z,19.40
2022-08-04T21:58:13.644Z,19.39
2022-08-04T22:00:41.501Z,19.21
2022-08-04T22:03:21.229Z,18.96
2022-08-04T22:05:56.827Z,18.57
2022-08-04T22:08:23.867Z,18.83
2022-08-04T22:10:57.771Z,18.76
2022-08-04T22:14:10.573Z,18.78
2022-08-04T22:16:11.957Z,19.17
2022-08-04T22:18:38.895Z,19.12
2022-08-04T22:21:09.661Z,18.93
2022-08-04T22:23:45.654Z,18.62
2022-08-04T22:26:26.706Z,17.99
2022-08-04T22:28:56.147Z,17.62
2022-08-04T22:31:25.508Z,17.48
2022-08-04T22:33:56.142Z,17.50
2022-08-04T22:36:24.800Z,17.92
2022-08-04T22:39:04.369Z,18.38
2022-08-04T22:41:48.605Z,18.72
2022-08-04T22:44:16.326Z,18.42
2022-08-04T22:46:43.371Z,17.77
2022-08-04T22:49:12.730Z,17.49
2022-08-04T22:51:39.847Z,17.50
2022-08-04T22:54:15.405Z,17.64
2022-08-04T22:56:42.420Z,17.37
2022-08-04T22:59:13.026Z,17.53
2022-08-04T23:01:59.602Z,17.16
2022-08-04T23:04:32.955Z,17.13
2022-08-04T23:07:09.287Z,16.74
2022-08-04T23:09:51.129Z,16.98
2022-08-04T23:12:27.201Z,16.94
2022-08-04T23:14:57.279Z,16.84
2022-08-04T23:17:27.524Z,17.12
2022-08-04T23:19:59.677Z,16.88
2022-08-04T23:22:42.178Z,16.67
2022-08-04T23:25:15.282Z,16.82
2022-08-04T23:27:43.769Z,16.33
2022-08-04T23:30:11.963Z,16.09
2022-08-04T23:32:40.817Z,16.14
2022-08-04T23:35:09.301Z,16.15
2022-08-04T23:37:36.591Z,16.68
2022-08-04T23:40:32.696Z,16.91
2022-08-04T23:43:17.356Z,16.67
2022-08-04T23:46:04.342Z,16.49
2022-08-04T23:48:39.491Z,16.37
2022-08-04T23:51:14.813Z,15.94
2022-08-04T23:54:02.152Z,15.69
2022-08-04T23:56:34.576Z,15.43
2022-08-04T23:59:04.413Z,15.40
